Cloverleaf, Texas
Current Conditions -  °F | °C
As of 5:50 PM on Saturday 22 Nov 2014 (Local Time) from KEFD Reporting Station
Haze Haze  
Wind Chill: 64°   Ceiling: 2500
Heat Index: 64°   Visibility: 6mi
Dew Point: 64°   Wind: 8mph
Humidity: 100%   Direction: 80°E
Pressure: 29.84"   Gusts: NA
Location:  29.77°N, 95.17°W
Report Text: KEFD 222350Z 08007KT 6SM BR SCT009 BKN025 OVC070 18/18 A2984
Loading
Personal Weather Stations






























Interactive Weather Map New forecast layout! Learn more

10-Day Weather Forecast

Advertisements
Track Severe Weather on mobile